Time;durP1;ratioP1;P1;durP2;ratioP2;P2;SDS_P1;SDS_P2;PMS_P1;PMS_P2;Temp;Humidity;BMP_temperature;BMP_pressure;BME280_temperature;BME280_humidity;BME280_pressure;Samples;Min_cycle;Max_cycle;Signal;HPM_P1;HPM_P2
2021/05/14 00:02:05;;;;;;;5.57;4.20;;;;;;;10.39;100.00;99609.78;5106847;28;20086;-71
2021/05/14 00:04:32;;;;;;;5.30;4.00;;;;;;;10.39;100.00;99610.63;5112274;28;20407;-73
2021/05/14 00:06:59;;;;;;;4.18;3.78;;;;;;;10.41;100.00;99610.53;5092899;28;20090;-72
2021/05/14 00:09:27;;;;;;;5.10;4.28;;;;;;;10.38;100.00;99606.31;5106523;28;20043;-71
2021/05/14 00:11:54;;;;;;;4.82;4.20;;;;;;;10.34;100.00;99618.03;5108423;27;20135;-71
2021/05/14 00:14:22;;;;;;;5.00;3.83;;;;;;;10.39;100.00;99609.78;5111749;27;20417;-71
2021/05/14 00:16:49;;;;;;;4.88;4.28;;;;;;;10.38;100.00;99608.97;5117258;27;20369;-71
2021/05/14 00:19:16;;;;;;;4.82;3.88;;;;;;;10.50;100.00;99612.47;5120894;27;20063;-71
2021/05/14 00:21:43;;;;;;;5.00;4.22;;;;;;;10.34;100.00;99607.50;5111605;27;20043;-70
2021/05/14 00:24:11;;;;;;;5.00;3.95;;;;;;;10.37;100.00;99612.53;5115061;27;20480;-71
2021/05/14 00:26:38;;;;;;;4.95;3.85;;;;;;;10.40;100.00;99611.47;5088487;28;20055;-70
2021/05/14 00:29:05;;;;;;;4.18;3.13;;;;;;;10.38;100.00;99610.75;5131226;27;20062;-70
2021/05/14 00:31:32;;;;;;;4.25;3.03;;;;;;;10.39;100.00;99613.25;5124593;27;20085;-70
2021/05/14 00:34:00;;;;;;;3.60;2.80;;;;;;;10.36;100.00;99610.03;5134018;27;20107;-71
2021/05/14 00:36:27;;;;;;;5.90;2.58;;;;;;;10.41;100.00;99601.81;5095637;27;20074;-70
2021/05/14 00:38:54;;;;;;;5.80;3.08;;;;;;;10.43;100.00;99608.63;5092082;28;20147;-70
2021/05/14 00:41:21;;;;;;;2.53;2.33;;;;;;;10.36;100.00;99604.78;5119772;27;20174;-72
2021/05/14 00:43:49;;;;;;;2.78;2.33;;;;;;;10.43;100.00;99600.72;5117302;27;20051;-71
2021/05/14 00:46:16;;;;;;;1.70;1.60;;;;;;;10.45;100.00;99608.53;5095653;28;20055;-72
2021/05/14 00:48:43;;;;;;;3.20;1.80;;;;;;;10.43;100.00;99607.78;5119117;27;20123;-71
2021/05/14 00:51:10;;;;;;;2.00;1.80;;;;;;;10.37;100.00;99607.28;5089961;28;20051;-71
2021/05/14 00:53:38;;;;;;;2.03;1.83;;;;;;;10.41;100.00;99607.06;5099428;27;20046;-70
2021/05/14 00:56:05;;;;;;;3.45;1.95;;;;;;;10.41;100.00;99609.69;5110467;27;20039;-71
2021/05/14 00:58:32;;;;;;;3.50;1.83;;;;;;;10.47;100.00;99606.59;5112992;27;20546;-70
2021/05/14 01:00:59;;;;;;;2.80;1.50;;;;;;;10.43;100.00;99599.88;5116378;27;20532;-72
2021/05/14 01:03:27;;;;;;;2.22;1.55;;;;;;;10.35;100.00;99616.22;5098873;27;20075;-71
2021/05/14 01:05:54;;;;;;;2.15;1.95;;;;;;;10.30;100.00;99610.47;5097041;27;20116;-71
2021/05/14 01:08:21;;;;;;;2.35;1.95;;;;;;;10.25;100.00;99609.97;5102165;27;20134;-70
2021/05/14 01:10:51;;;;;;;2.70;1.77;;;;;;;10.34;100.00;99604.88;5115466;27;20050;-71
2021/05/14 01:13:25;;;;;;;1.92;1.80;;;;;;;10.23;100.00;99604.81;5108191;27;20055;-70
2021/05/14 01:15:52;;;;;;;2.95;2.00;;;;;;;10.24;100.00;99610.91;5073219;28;20068;-72
2021/05/14 01:18:19;;;;;;;3.08;2.13;;;;;;;10.31;100.00;99613.00;5116206;27;20075;-72
2021/05/14 01:20:46;;;;;;;2.53;1.98;;;;;;;10.27;100.00;99611.56;5110978;27;20086;-70
2021/05/14 01:23:14;;;;;;;2.63;2.05;;;;;;;10.25;100.00;99610.81;5084796;28;20521;-71
2021/05/14 01:25:41;;;;;;;2.25;1.90;;;;;;;10.28;100.00;99612.41;5092158;28;20409;-70
2021/05/14 01:28:09;;;;;;;3.33;1.52;;;;;;;10.30;100.00;99611.31;5113078;27;20074;-70
2021/05/14 01:30:36;;;;;;;2.05;1.73;;;;;;;10.30;100.00;99607.84;5079128;27;20126;-70
2021/05/14 01:33:03;;;;;;;1.80;1.58;;;;;;;10.29;100.00;99598.28;5103431;27;20526;-72
2021/05/14 01:35:30;;;;;;;1.70;1.60;;;;;;;10.30;100.00;99595.53;5101078;27;20057;-71
2021/05/14 01:37:58;;;;;;;2.03;1.85;;;;;;;10.26;100.00;99601.97;5112882;27;20051;-70
2021/05/14 01:40:26;;;;;;;3.15;2.03;;;;;;;10.26;100.00;99591.44;5085908;28;20209;-70
2021/05/14 01:42:53;;;;;;;2.10;1.75;;;;;;;10.31;100.00;99591.09;5065894;28;20127;-71
2021/05/14 01:45:20;;;;;;;1.70;1.60;;;;;;;10.34;100.00;99586.47;5089049;27;20043;-71
2021/05/14 01:47:48;;;;;;;3.10;1.90;;;;;;;10.11;100.00;99585.50;5109075;27;20346;-70
2021/05/14 01:50:16;;;;;;;1.90;1.60;;;;;;;10.07;100.00;99583.22;5093144;27;20138;-70
2021/05/14 01:52:43;;;;;;;1.60;1.48;;;;;;;10.26;100.00;99587.97;5123636;27;20054;-72
2021/05/14 01:55:11;;;;;;;1.60;1.50;;;;;;;10.21;100.00;99584.81;5107530;27;20085;-70
2021/05/14 01:57:38;;;;;;;3.97;1.40;;;;;;;10.19;100.00;99581.47;5095856;28;20143;-72
2021/05/14 02:00:07;;;;;;;1.63;1.48;;;;;;;10.21;100.00;99585.66;5106576;27;20054;-71
2021/05/14 02:02:35;;;;;;;1.92;1.60;;;;;;;10.24;100.00;99581.97;5123172;27;20079;-71
2021/05/14 02:05:02;;;;;;;1.92;1.77;;;;;;;10.21;100.00;99582.19;5121223;27;20047;-72
2021/05/14 02:07:29;;;;;;;2.60;1.52;;;;;;;10.19;100.00;99582.31;5108685;27;20052;-71
2021/05/14 02:09:57;;;;;;;3.45;1.73;;;;;;;10.20;100.00;99577.88;5110579;27;20055;-71
2021/05/14 02:12:24;;;;;;;3.08;1.35;;;;;;;10.15;100.00;99588.75;5104386;27;20043;-71
2021/05/14 02:14:52;;;;;;;1.85;1.60;;;;;;;10.15;100.00;99586.13;5109682;27;20073;-70
2021/05/14 02:17:19;;;;;;;2.63;1.77;;;;;;;10.06;100.00;99582.38;5086936;28;20056;-71
2021/05/14 02:19:46;;;;;;;3.67;2.00;;;;;;;10.06;100.00;99582.38;5115407;27;20055;-72
2021/05/14 02:22:14;;;;;;;2.05;1.83;;;;;;;10.19;100.00;99578.84;5104838;27;20053;-70
2021/05/14 02:24:41;;;;;;;1.77;1.67;;;;;;;10.00;100.00;99584.63;5092769;27;20051;-70
2021/05/14 02:27:08;;;;;;;5.68;2.42;;;;;;;10.02;100.00;99586.19;5095738;27;20064;-70
2021/05/14 02:29:35;;;;;;;1.85;1.75;;;;;;;10.03;100.00;99587.84;5090263;28;20719;-70
2021/05/14 02:32:04;;;;;;;2.60;2.10;;;;;;;10.12;100.00;99581.91;5114896;27;20569;-70
2021/05/14 02:34:35;;;;;;;2.88;1.70;;;;;;;10.13;100.00;99583.63;5097878;28;20130;-69
2021/05/14 02:37:02;;;;;;;2.33;2.13;;;;;;;10.04;100.00;99586.06;5112472;27;20123;-69
2021/05/14 02:39:30;;;;;;;3.67;2.30;;;;;;;10.13;100.00;99588.00;5107640;27;20043;-70
2021/05/14 02:41:57;;;;;;;2.58;2.17;;;;;;;10.21;100.00;99585.66;5116684;27;20053;-70
2021/05/14 02:44:25;;;;;;;6.03;1.98;;;;;;;10.22;100.00;99576.84;5103949;27;20047;-71
2021/05/14 02:46:52;;;;;;;4.00;2.00;;;;;;;10.18;100.00;99580.66;5095906;27;20043;-71
2021/05/14 02:49:20;;;;;;;2.05;1.85;;;;;;;10.22;100.00;99581.22;5119351;27;20043;-71
2021/05/14 02:51:47;;;;;;;3.92;2.10;;;;;;;10.24;100.00;99581.97;5114773;27;20047;-71
2021/05/14 02:54:14;;;;;;;2.55;2.20;;;;;;;10.20;100.00;99591.03;5095706;27;20473;-69
2021/05/14 02:56:42;;;;;;;4.68;2.90;;;;;;;10.19;100.00;99582.31;5110505;27;20067;-70
2021/05/14 02:59:09;;;;;;;3.28;2.13;;;;;;;10.30;100.00;99578.91;5112671;27;20060;-68
2021/05/14 03:01:36;;;;;;;4.13;2.35;;;;;;;10.23;100.00;99591.66;5110987;27;20325;-72
2021/05/14 03:04:04;;;;;;;5.32;2.47;;;;;;;10.23;100.00;99589.03;5090134;28;20589;-71
2021/05/14 03:06:32;;;;;;;3.35;2.40;;;;;;;10.19;100.00;99592.84;5110104;27;20052;-70
2021/05/14 03:08:59;;;;;;;2.92;2.63;;;;;;;10.19;100.00;99582.31;5105662;28;20044;-69
2021/05/14 03:11:26;;;;;;;5.80;3.28;;;;;;;10.23;100.00;99583.78;5105393;28;20047;-70
2021/05/14 03:13:53;;;;;;;3.55;2.70;;;;;;;10.19;100.00;99592.00;5079553;28;20423;-71
2021/05/14 03:16:21;;;;;;;3.72;2.55;;;;;;;10.24;100.00;99588.09;5115119;28;20047;-71
2021/05/14 03:18:49;;;;;;;3.97;2.63;;;;;;;10.17;100.00;99591.25;5109213;28;20359;-70
2021/05/14 03:21:16;;;;;;;2.88;2.65;;;;;;;10.25;100.00;99586.31;5103022;28;20121;-70
2021/05/14 03:23:43;;;;;;;7.30;2.72;;;;;;;10.30;100.00;99581.53;5115003;28;20516;-71
2021/05/14 03:26:11;;;;;;;6.18;3.65;;;;;;;10.30;100.00;99586.81;5093931;28;20073;-70
2021/05/14 03:28:38;;;;;;;6.95;3.03;;;;;;;10.36;100.00;99589.81;5110944;28;20130;-70
2021/05/14 03:31:05;;;;;;;4.53;3.78;;;;;;;10.31;100.00;99584.06;5091767;28;20224;-70
2021/05/14 03:33:32;;;;;;;4.03;3.35;;;;;;;10.26;100.00;99590.59;5100297;28;20079;-71
2021/05/14 03:35:59;;;;;;;3.83;3.47;;;;;;;10.22;100.00;99583.84;5094037;28;20626;-71
2021/05/14 03:38:33;;;;;;;6.53;3.67;;;;;;;10.25;100.00;99581.88;5113101;28;20523;-71
2021/05/14 03:41:02;;;;;;;4.93;3.75;;;;;;;10.17;100.00;99588.63;5091002;27;20062;-69
2021/05/14 03:43:32;;;;;;;5.90;3.63;;;;;;;10.19;100.00;99594.63;5101306;27;20043;-72
2021/05/14 03:45:59;;;;;;;5.38;3.15;;;;;;;10.25;100.00;99592.41;5117586;27;20151;-70
2021/05/14 03:48:26;;;;;;;6.00;4.10;;;;;;;10.08;100.00;99595.41;5114779;27;20180;-69
2021/05/14 03:50:53;;;;;;;4.00;3.58;;;;;;;10.13;100.00;99599.38;5099530;27;20465;-71
2021/05/14 03:53:21;;;;;;;5.82;3.72;;;;;;;10.17;100.00;99601.78;5098982;27;20040;-70
2021/05/14 03:55:50;;;;;;;4.50;3.75;;;;;;;10.25;100.00;99592.41;5112070;27;20043;-71
2021/05/14 03:58:18;;;;;;;5.60;3.33;;;;;;;10.36;100.00;99602.97;5087423;28;20056;-71
2021/05/14 04:00:45;;;;;;;10.23;3.78;;;;;;;10.30;100.00;99600.78;5091778;27;20542;-71
2021/05/14 04:03:14;;;;;;;4.68;3.40;;;;;;;10.35;100.00;99592.56;5109288;27;20051;-71
2021/05/14 04:05:42;;;;;;;4.85;3.58;;;;;;;10.26;100.00;99595.88;5117032;27;20266;-71
2021/05/14 04:08:10;;;;;;;3.90;3.03;;;;;;;10.13;100.00;99595.91;5074769;28;20047;-71
2021/05/14 04:16:06;;;;;;;4.07;2.90;;;;;;;10.10;100.00;99593.50;5090031;27;20070;-70
2021/05/14 04:18:37;;;;;;;3.80;2.63;;;;;;;10.10;100.00;99599.59;5100687;27;20520;-70
2021/05/14 04:21:05;;;;;;;6.18;3.30;;;;;;;10.08;100.00;99601.50;5064041;28;20035;-72
2021/05/14 04:23:33;;;;;;;5.93;2.70;;;;;;;10.19;100.00;99599.88;5094063;28;20047;-69
2021/05/14 04:26:01;;;;;;;4.15;3.78;;;;;;;10.19;100.00;99602.53;5108272;27;20048;-70
2021/05/14 04:28:28;;;;;;;3.72;3.05;;;;;;;10.19;100.00;99602.53;5095779;28;20052;-70
2021/05/14 04:30:55;;;;;;;2.78;2.58;;;;;;;10.24;100.00;99610.91;5107795;27;20054;-71
2021/05/14 04:33:22;;;;;;;3.97;2.70;;;;;;;10.23;100.00;99599.53;5114984;27;20059;-71
2021/05/14 04:35:49;;;;;;;4.00;2.47;;;;;;;10.17;100.00;99594.72;5096359;27;20123;-71
2021/05/14 04:38:17;;;;;;;4.53;2.20;;;;;;;10.28;100.00;99592.19;5091939;27;20053;-71
2021/05/14 04:40:44;;;;;;;4.20;2.78;;;;;;;10.31;100.00;99601.63;5113589;27;20482;-69
2021/05/14 04:43:11;;;;;;;2.30;2.10;;;;;;;10.34;100.00;99601.41;5087542;28;20047;-71
2021/05/14 04:45:38;;;;;;;3.22;2.30;;;;;;;10.36;100.00;99599.50;5114639;27;20043;-70
2021/05/14 04:48:09;;;;;;;3.15;2.50;;;;;;;10.36;100.00;99604.78;5117857;27;20049;-70
2021/05/14 04:50:37;;;;;;;4.05;2.60;;;;;;;10.37;100.00;99602.03;5086089;27;20051;-70
2021/05/14 04:53:07;;;;;;;2.95;1.50;;;;;;;10.28;100.00;99607.97;5115272;27;20074;-70
2021/05/14 04:55:35;;;;;;;1.70;1.60;;;;;;;10.24;100.00;99616.16;5113670;27;20049;-71
2021/05/14 04:58:03;;;;;;;2.08;1.70;;;;;;;10.17;100.00;99612.28;5092431;27;20402;-70
2021/05/14 05:00:30;;;;;;;4.05;1.60;;;;;;;10.26;100.00;99617.75;5098085;27;20039;-70
2021/05/14 05:02:58;;;;;;;2.45;2.22;;;;;;;10.20;100.00;99620.81;5076691;28;20466;-71
2021/05/14 05:05:25;;;;;;;2.42;2.22;;;;;;;10.13;100.00;99616.94;5095461;27;20047;-70
2021/05/14 05:07:53;;;;;;;4.82;2.33;;;;;;;10.22;100.00;99618.06;5123796;27;20132;-70
2021/05/14 05:10:21;;;;;;;2.92;2.22;;;;;;;10.22;100.00;99623.31;5133638;27;20083;-70
2021/05/14 05:12:48;;;;;;;2.53;2.28;;;;;;;10.12;100.00;99624.00;5096720;28;20099;-70
2021/05/14 05:15:15;;;;;;;2.60;2.40;;;;;;;10.14;100.00;99623.91;5083896;28;20048;-71
2021/05/14 05:17:43;;;;;;;3.22;2.88;;;;;;;10.12;100.00;99613.47;5108140;27;20044;-69
2021/05/14 05:20:10;;;;;;;2.63;2.30;;;;;;;10.06;100.00;99624.44;5116299;27;20070;-70
2021/05/14 05:22:37;;;;;;;4.03;2.95;;;;;;;10.03;100.00;99619.41;5110268;27;20286;-71
2021/05/14 05:25:05;;;;;;;2.65;2.30;;;;;;;10.13;100.00;99627.44;5116759;27;20369;-70
2021/05/14 05:27:32;;;;;;;2.58;2.33;;;;;;;10.08;100.00;99625.16;5095087;27;20051;-71
2021/05/14 05:29:59;;;;;;;3.47;2.47;;;;;;;10.02;100.00;99625.63;5122428;27;20523;-71
2021/05/14 05:32:27;;;;;;;3.92;2.47;;;;;;;10.14;100.00;99635.25;5115621;27;20043;-71
2021/05/14 05:34:54;;;;;;;2.92;2.60;;;;;;;10.03;100.00;99629.91;5085378;27;20036;-71
2021/05/14 05:37:22;;;;;;;2.60;2.25;;;;;;;10.04;100.00;99634.25;5113722;27;20047;-69
2021/05/14 05:39:50;;;;;;;2.80;2.28;;;;;;;10.02;100.00;99635.28;5110714;27;20055;-70
2021/05/14 05:42:17;;;;;;;15.00;2.90;;;;;;;9.96;100.00;99638.38;5103049;27;20044;-70
2021/05/14 05:44:44;;;;;;;6.00;2.60;;;;;;;10.12;100.00;99641.56;5121023;27;20050;-71
2021/05/14 05:47:11;;;;;;;4.05;2.42;;;;;;;10.13;100.00;99637.97;5092556;27;20142;-70
2021/05/14 05:49:39;;;;;;;2.38;2.17;;;;;;;10.08;100.00;99643.56;5115423;27;20078;-69
2021/05/14 05:52:06;;;;;;;3.63;2.38;;;;;;;9.96;100.00;99639.22;5096090;27;20480;-71
2021/05/14 05:54:33;;;;;;;3.45;2.70;;;;;;;10.11;100.00;99645.97;5097386;27;20047;-71
2021/05/14 05:57:00;;;;;;;2.03;1.70;;;;;;;10.02;100.00;99644.03;5084880;27;20127;-70
2021/05/14 05:59:28;;;;;;;2.53;1.98;;;;;;;10.02;100.00;99649.28;5106548;27;20043;-69
2021/05/14 06:01:55;;;;;;;2.15;1.95;;;;;;;10.03;100.00;99644.84;5123181;27;20398;-69
2021/05/14 06:04:23;;;;;;;2.78;2.30;;;;;;;9.96;100.00;99648.91;5107336;27;20139;-70
2021/05/14 06:06:51;;;;;;;3.42;2.40;;;;;;;9.96;100.00;99651.53;5105690;27;20105;-71
2021/05/14 06:09:18;;;;;;;2.83;2.28;;;;;;;10.04;100.00;99652.66;5106573;27;20967;-71
2021/05/14 06:11:46;;;;;;;3.35;2.25;;;;;;;10.13;100.00;99649.34;5099385;27;20448;-71
2021/05/14 06:14:13;;;;;;;3.65;2.83;;;;;;;10.15;100.00;99654.50;5104949;27;20050;-71
2021/05/14 06:16:40;;;;;;;3.40;2.60;;;;;;;10.12;100.00;99649.44;5118633;27;20047;-70
2021/05/14 06:19:13;;;;;;;1.85;1.73;;;;;;;10.27;100.00;99653.66;5114252;27;20582;-70
2021/05/14 06:21:48;;;;;;;2.90;2.22;;;;;;;10.30;100.00;99653.41;5081964;27;20062;-70
2021/05/14 06:24:16;;;;;;;4.15;2.60;;;;;;;10.39;100.00;99657.97;5108170;27;20075;-70
2021/05/14 06:26:45;;;;;;;4.03;2.33;;;;;;;10.45;100.00;99658.50;5123876;27;20652;-71
2021/05/14 06:29:13;;;;;;;2.65;2.40;;;;;;;10.33;100.00;99668.13;5097307;27;20083;-70
2021/05/14 06:31:40;;;;;;;5.22;3.17;;;;;;;10.19;100.00;99658.59;5079056;28;20044;-71
2021/05/14 06:34:07;;;;;;;3.28;2.50;;;;;;;10.19;100.00;99663.00;5115025;27;20143;-70
2021/05/14 06:36:35;;;;;;;4.30;3.15;;;;;;;10.21;100.00;99661.94;5073181;28;20048;-72
2021/05/14 06:39:03;;;;;;;2.67;2.47;;;;;;;10.19;100.00;99661.22;5088941;27;20047;-70
2021/05/14 06:41:30;;;;;;;4.32;3.10;;;;;;;10.35;100.00;99661.78;5091927;27;20120;-70
2021/05/14 06:43:58;;;;;;;3.30;2.83;;;;;;;10.56;100.00;99663.81;5094735;28;20067;-70
2021/05/14 06:46:25;;;;;;;7.35;4.22;;;;;;;10.48;100.00;99668.78;5115200;27;20146;-70
2021/05/14 06:48:53;;;;;;;3.65;3.35;;;;;;;10.49;100.00;99666.06;5105670;27;20047;-70
2021/05/14 06:51:20;;;;;;;7.35;4.28;;;;;;;10.62;100.00;99671.22;5096128;28;20539;-70
2021/05/14 06:53:49;;;;;;;7.05;3.83;;;;;;;10.41;100.00;99670.22;5112475;27;20051;-71
2021/05/14 06:56:17;;;;;;;5.03;3.85;;;;;;;10.55;100.00;99678.75;5080178;28;20528;-71
2021/05/14 06:58:44;;;;;;;5.70;4.75;;;;;;;10.57;100.00;99678.63;5090178;27;20513;-70
2021/05/14 07:01:11;;;;;;;5.68;4.43;;;;;;;10.38;100.00;99676.53;5112305;27;20057;-70
2021/05/14 07:03:38;;;;;;;8.23;5.20;;;;;;;10.42;100.00;99677.16;5117407;27;20074;-70
2021/05/14 07:06:06;;;;;;;6.30;5.38;;;;;;;10.37;100.00;99685.38;5097451;27;20066;-70
2021/05/14 07:08:33;;;;;;;8.27;5.18;;;;;;;10.42;100.00;99685.88;5109200;28;20416;-71
2021/05/14 07:11:00;;;;;;;5.85;5.13;;;;;;;10.57;100.00;99684.72;5113094;27;20047;-70
2021/05/14 07:13:27;;;;;;;5.90;4.75;;;;;;;10.56;100.00;99687.50;5092189;28;20043;-70
2021/05/14 07:15:54;;;;;;;6.03;4.80;;;;;;;10.59;100.00;99684.66;5096972;28;20052;-70
2021/05/14 07:18:22;;;;;;;5.30;4.07;;;;;;;10.43;100.00;99692.81;5111356;28;20609;-71
2021/05/14 07:20:49;;;;;;;5.03;3.80;;;;;;;10.49;100.00;99699.41;5112890;28;20062;-71
2021/05/14 07:23:16;;;;;;;5.35;4.68;;;;;;;10.19;100.00;99697.19;5108822;28;20056;-71
2021/05/14 07:25:44;;;;;;;6.00;4.63;;;;;;;10.14;100.00;99706.25;5109528;28;20101;-71
2021/05/14 07:28:11;;;;;;;5.13;4.45;;;;;;;9.99;100.00;99706.50;5114769;28;20043;-70
2021/05/14 07:30:38;;;;;;;6.13;4.32;;;;;;;10.31;100.00;99706.84;5081090;28;20122;-70
2021/05/14 07:33:06;;;;;;;6.78;4.78;;;;;;;10.34;100.00;99706.63;5112589;28;20043;-70
2021/05/14 07:35:33;;;;;;;4.70;3.63;;;;;;;10.31;100.00;99715.59;5105178;28;20564;-70
2021/05/14 07:38:09;;;;;;;;;;;;;;;10.42;100.00;99713.97;5088053;28;20047;-71
2021/05/14 07:40:38;;;;;;;4.88;3.20;;;;;;;10.29;100.00;99709.59;5098704;28;20486;-68
2021/05/14 07:43:06;;;;;;;5.00;3.10;;;;;;;10.50;100.00;99709.00;5079078;28;20106;-70
2021/05/14 07:45:33;;;;;;;3.85;2.33;;;;;;;10.65;100.00;99710.50;5108271;28;20440;-70
2021/05/14 07:48:06;;;;;;;4.40;2.42;;;;;;;10.63;100.00;99708.00;5086750;28;20036;-70
2021/05/14 07:50:33;;;;;;;7.90;3.22;;;;;;;10.82;100.00;99715.34;5107728;28;20046;-70
2021/05/14 07:53:02;;;;;;;5.45;2.70;;;;;;;10.94;100.00;99715.38;5117973;28;20497;-70
2021/05/14 07:55:29;;;;;;;4.88;2.67;;;;;;;10.68;100.00;99722.59;5092963;28;20047;-70
2021/05/14 07:57:56;;;;;;;6.60;2.17;;;;;;;10.60;100.00;99721.38;5086629;28;20418;-69
2021/05/14 08:00:23;;;;;;;4.95;2.22;;;;;;;10.55;100.00;99726.13;5106718;28;20051;-70
2021/05/14 08:02:50;;;;;;;6.15;2.70;;;;;;;10.85;100.00;99730.94;5108857;28;20078;-69
2021/05/14 08:05:18;;;;;;;3.53;2.30;;;;;;;10.56;100.00;99734.88;5098590;28;20056;-70
2021/05/14 08:07:58;;;;;;;3.15;2.53;;;;;;;10.64;100.00;99730.72;5107856;28;20521;-70
2021/05/14 08:10:25;;;;;;;3.15;2.83;;;;;;;10.72;100.00;99738.06;5106838;28;20051;-71
2021/05/14 08:13:12;;;;;;;3.35;2.45;;;;;;;10.33;100.00;99741.78;5106238;28;20476;-70
2021/05/14 08:15:39;;;;;;;4.57;2.30;;;;;;;10.14;100.00;99742.25;5107895;28;20047;-72
2021/05/14 08:18:07;;;;;;;3.40;2.33;;;;;;;10.34;100.00;99738.22;5098543;28;20085;-71
2021/05/14 08:20:34;;;;;;;5.72;2.42;;;;;;;10.53;100.00;99740.34;5110400;28;20056;-71
2021/05/14 08:23:01;;;;;;;2.45;2.25;;;;;;;10.49;100.00;99733.63;5116681;28;20246;-71
2021/05/14 08:25:28;;;;;;;4.22;2.03;;;;;;;10.76;100.00;99736.00;5098232;28;20044;-70
2021/05/14 08:27:55;;;;;;;2.00;1.80;;;;;;;10.73;100.00;99741.53;5105025;28;20426;-72
2021/05/14 08:30:23;;;;;;;2.05;1.85;;;;;;;10.56;100.00;99743.59;5107529;27;20076;-69
2021/05/14 08:32:50;;;;;;;1.95;1.73;;;;;;;10.69;100.00;99743.53;5091994;28;20047;-71
2021/05/14 08:35:17;;;;;;;2.88;1.52;;;;;;;10.55;100.00;99744.56;5120138;27;20401;-70
2021/05/14 08:37:47;;;;;;;2.70;1.88;;;;;;;10.78;100.00;99747.28;5099093;27;20053;-71
2021/05/14 08:40:15;;;;;;;1.83;1.40;;;;;;;10.67;100.00;99745.44;5109982;27;20399;-70
2021/05/14 08:42:42;;;;;;;3.15;1.83;;;;;;;10.83;100.00;99755.69;5115512;27;20471;-70
2021/05/14 08:45:12;;;;;;;2.17;1.40;;;;;;;10.83;100.00;99753.06;5087457;28;20046;-71
2021/05/14 08:47:40;;;;;;;2.10;1.40;;;;;;;10.81;100.00;99747.06;5098931;28;20040;-71
2021/05/14 08:50:10;;;;;;;2.53;1.60;;;;;;;10.55;100.00;99746.34;5112948;27;20085;-71
2021/05/14 08:52:39;;;;;;;3.95;1.90;;;;;;;10.67;100.00;99750.69;5092515;28;20135;-70
2021/05/14 08:55:08;;;;;;;4.85;2.42;;;;;;;10.46;100.00;99758.38;5093121;28;20044;-71
2021/05/14 08:57:35;;;;;;;2.05;1.83;;;;;;;10.58;100.00;99754.00;5091087;28;20143;-70
2021/05/14 09:00:05;;;;;;;3.53;2.40;;;;;;;10.46;100.00;99757.53;5097664;28;20248;-69
2021/05/14 09:02:36;;;;;;;2.03;1.67;;;;;;;10.57;100.00;99755.78;5097333;28;20458;-71
2021/05/14 09:05:23;;;;;;;3.85;1.67;;;;;;;10.63;100.00;99767.69;5096895;28;20462;-71
2021/05/14 09:07:52;;;;;;;2.55;1.65;;;;;;;10.56;100.00;99766.44;5086697;27;20044;-71
2021/05/14 09:10:20;;;;;;;3.20;1.80;;;;;;;10.70;100.00;99768.06;5080529;27;20424;-70
2021/05/14 09:12:47;;;;;;;3.40;1.70;;;;;;;10.63;100.00;99770.31;5115295;27;20561;-71
2021/05/14 09:15:37;;;;;;;5.75;1.75;;;;;;;10.69;100.00;99777.75;5100326;27;20075;-70
2021/05/14 09:18:13;;;;;;;3.72;1.20;;;;;;;10.64;100.00;99785.16;5104354;27;20126;-70
2021/05/14 09:20:48;;;;;;;2.30;1.40;;;;;;;10.60;100.00;99778.44;5097787;27;20062;-70
2021/05/14 09:23:15;;;;;;;3.83;1.45;;;;;;;10.57;100.00;99783.91;5089140;27;20067;-71
2021/05/14 09:26:03;;;;;;;2.00;1.60;;;;;;;10.34;100.00;99796.91;5093838;27;20337;-70
2021/05/14 09:28:42;;;;;;;2.78;1.50;;;;;;;10.31;100.00;99796.28;5107361;27;20129;-71
2021/05/14 09:31:16;;;;;;;2.00;1.65;;;;;;;10.45;100.00;99790.91;5114109;27;20054;-71
2021/05/14 09:33:54;;;;;;;2.47;2.20;;;;;;;10.52;100.00;99789.50;5103306;28;20082;-71
2021/05/14 09:36:27;;;;;;;3.05;2.08;;;;;;;10.49;100.00;99802.91;5092100;27;20047;-70
2021/05/14 09:38:57;;;;;;;3.80;2.45;;;;;;;10.75;100.00;99795.72;5114647;27;20101;-71
2021/05/14 09:41:33;;;;;;;4.22;1.90;;;;;;;10.86;100.00;99794.97;5098133;27;20572;-71
2021/05/14 09:44:07;;;;;;;2.67;1.80;;;;;;;10.54;99.51;99799.94;5091845;27;20142;-72
2021/05/14 09:46:43;;;;;;;2.78;1.73;;;;;;;10.57;100.00;99794.44;5113646;27;20058;-71
2021/05/14 09:49:17;;;;;;;;;;;;;;;10.67;98.41;99802.50;5112481;27;20065;-71
2021/05/14 09:51:51;;;;;;;2.40;1.75;;;;;;;10.50;97.50;99801.94;5137725;27;20355;-70
2021/05/14 09:54:33;;;;;;;5.22;1.75;;;;;;;10.45;96.65;99800.59;5127888;27;20180;-72
2021/05/14 09:59:58;;;;;;;6.25;1.90;;;;;;;10.41;98.61;99805.22;5094345;27;20050;-72
2021/05/14 10:02:33;;;;;;;4.13;1.42;;;;;;;10.49;97.27;99807.28;5117250;27;20059;-71
2021/05/14 10:05:03;;;;;;;3.65;1.30;;;;;;;10.45;93.71;99811.13;5114130;27;20052;-71
2021/05/14 10:07:31;;;;;;;4.38;1.40;;;;;;;10.21;95.44;99808.38;5111950;27;20059;-72
2021/05/14 10:10:06;;;;;;;3.00;1.30;;;;;;;9.99;94.89;99806.41;5099962;27;20043;-73
2021/05/14 10:12:33;;;;;;;5.50;1.98;;;;;;;10.29;92.61;99806.09;5110449;27;20096;-71
2021/05/14 10:15:02;;;;;;;4.55;1.70;;;;;;;10.28;92.21;99807.06;5101642;27;20135;-70
2021/05/14 10:17:30;;;;;;;5.53;2.05;;;;;;;10.48;91.08;99814.34;5107870;27;20174;-72
2021/05/14 10:19:58;;;;;;;3.45;1.65;;;;;;;10.12;90.79;99815.97;5119404;27;20051;-70
2021/05/14 10:22:27;;;;;;;6.47;1.70;;;;;;;10.31;89.78;99815.56;5093603;27;20097;-72
2021/05/14 10:24:58;;;;;;;3.20;1.40;;;;;;;10.36;89.50;99810.00;5093305;27;20057;-71
2021/05/14 10:27:25;;;;;;;4.35;1.67;;;;;;;10.46;87.37;99816.28;5112512;27;20047;-72
2021/05/14 10:29:56;;;;;;;7.10;1.48;;;;;;;10.25;87.22;99813.34;5110392;27;20139;-72
2021/05/14 10:32:48;;;;;;;7.40;1.70;;;;;;;10.30;86.56;99815.66;5085815;27;20474;-72
2021/05/14 10:35:27;;;;;;;4.95;2.17;;;;;;;10.22;87.61;99812.69;5087526;27;20513;-70
2021/05/14 10:38:01;;;;;;;4.22;2.00;;;;;;;10.52;87.08;99817.63;5107288;27;20039;-71
2021/05/14 10:40:38;;;;;;;7.93;1.80;;;;;;;10.66;85.63;99822.72;5110678;27;20550;-71
2021/05/14 10:43:11;;;;;;;9.95;2.47;;;;;;;10.60;85.47;99823.19;5109469;27;20047;-71
2021/05/14 10:45:40;;;;;;;12.07;2.90;;;;;;;10.73;84.78;99820.50;5079515;27;20075;-71
2021/05/14 10:48:21;;;;;;;3.20;1.75;;;;;;;10.80;83.59;99803.28;5088436;28;20050;-71
2021/05/14 10:51:01;;;;;;;4.35;1.55;;;;;;;11.08;83.18;99812.66;5114578;27;20516;-71
2021/05/14 10:53:35;;;;;;;4.35;1.70;;;;;;;11.34;81.68;99821.25;5109764;27;20047;-72
2021/05/14 10:56:11;;;;;;;4.05;1.95;;;;;;;11.82;79.67;99814.09;5100097;27;20052;-70
2021/05/14 10:58:47;;;;;;;6.80;2.13;;;;;;;11.80;80.04;99818.63;5108988;27;20044;-69
2021/05/14 11:01:37;;;;;;;7.18;2.17;;;;;;;12.05;78.02;99820.22;5114984;27;20124;-70
2021/05/14 11:04:25;;;;;;;5.70;1.90;;;;;;;12.43;76.55;99829.56;5106217;28;20164;-72
2021/05/14 11:06:54;;;;;;;6.28;2.00;;;;;;;12.26;76.37;99827.41;5104234;28;20119;-71
2021/05/14 11:09:24;;;;;;;3.85;1.85;;;;;;;11.97;78.13;99829.69;5096210;27;20124;-71
2021/05/14 11:12:05;;;;;;;3.70;1.85;;;;;;;11.61;80.23;99837.59;5104910;28;20086;-71
2021/05/14 11:14:46;;;;;;;9.50;1.92;;;;;;;12.02;79.27;99833.66;5108029;28;20060;-71
2021/05/14 11:17:15;;;;;;;6.70;2.38;;;;;;;12.19;79.10;99832.31;5116007;28;20473;-71
2021/05/14 11:19:50;;;;;;;4.63;2.20;;;;;;;12.33;76.71;99833.88;5090954;28;20054;-71
2021/05/14 11:22:22;;;;;;;4.70;1.70;;;;;;;12.50;76.56;99841.31;5083999;28;20113;-72
2021/05/14 11:25:06;;;;;;;8.40;2.00;;;;;;;13.18;72.67;99841.97;5098426;28;20131;-71
2021/05/14 11:27:34;;;;;;;4.88;2.70;;;;;;;12.83;74.44;99848.34;5092939;28;20044;-70
2021/05/14 12:08:41;;;;;;;6.18;2.30;;;;;;;12.23;77.64;99861.97;5111500;27;20915;-72
2021/05/14 12:11:12;;;;;;;5.72;2.45;;;;;;;12.19;78.43;99868.44;5124023;27;20041;-72
2021/05/14 12:13:42;;;;;;;5.88;2.92;;;;;;;12.25;78.45;99863.53;5077237;27;20047;-69
2021/05/14 12:16:11;;;;;;;8.75;3.00;;;;;;;12.18;79.26;99870.22;5089062;28;20130;-72
2021/05/14 12:18:45;;;;;;;9.18;3.30;;;;;;;12.32;79.81;99869.16;5126680;27;20100;-71
2021/05/14 12:21:35;;;;;;;5.38;2.60;;;;;;;12.52;77.99;99873.72;5093195;28;20093;-71
2021/05/14 12:24:12;;;;;;;4.85;2.85;;;;;;;12.03;80.20;99877.53;5119089;27;20072;-71